createdAt,value
2022-12-12T00:03:57.706Z,0.71
2022-12-12T00:18:57.747Z,0.45
2022-12-12T00:33:57.692Z,0.08
2022-12-12T00:48:57.859Z,0.05
2022-12-12T01:03:57.637Z,0.38
2022-12-12T01:18:57.956Z,0.33
2022-12-12T01:33:57.875Z,0.49
2022-12-12T01:48:57.990Z,0.99
2022-12-12T02:03:57.950Z,0.52
2022-12-12T02:18:57.903Z,0.39
2022-12-12T02:33:57.968Z,0.20
2022-12-12T02:48:58.121Z,0.32
2022-12-12T03:03:58.107Z,0.37
2022-12-12T03:18:58.113Z,0.57
2022-12-12T03:33:58.024Z,0.14
2022-12-12T03:48:58.059Z,0.21
2022-12-12T04:03:58.236Z,0.31
2022-12-12T04:18:58.204Z,0.27
2022-12-12T04:33:58.227Z,0.33
2022-12-12T04:48:58.168Z,0.10
2022-12-12T05:03:58.172Z,0.13
2022-12-12T05:18:58.469Z,0.04
2022-12-12T05:33:58.538Z,0.29
2022-12-12T05:48:58.536Z,0.32
2022-12-12T06:03:58.674Z,0.38
2022-12-12T06:18:58.496Z,0.23
2022-12-12T06:33:58.421Z,0.08
2022-12-12T06:48:58.645Z,0.04
2022-12-12T07:03:58.417Z,0.14
2022-12-12T07:18:58.702Z,0.18
2022-12-12T07:33:58.526Z,0.12
2022-12-12T07:48:58.597Z,0.00
2022-12-12T08:03:58.675Z,0.00
2022-12-12T08:18:58.936Z,0.00
2022-12-12T08:33:58.627Z,0.01
2022-12-12T08:48:58.722Z,0.03
2022-12-12T09:03:58.810Z,0.02
2022-12-12T09:18:58.663Z,0.02
2022-12-12T09:33:58.928Z,0.25
2022-12-12T09:48:58.961Z,0.42
2022-12-12T10:03:58.934Z,0.71
2022-12-12T10:18:59.059Z,0.84
2022-12-12T10:33:58.815Z,0.96
2022-12-12T10:48:58.912Z,1.20
2022-12-12T11:03:59.032Z,1.37
2022-12-12T11:18:59.180Z,1.33
2022-12-12T11:33:59.274Z,0.74
2022-12-12T11:48:59.475Z,1.41
2022-12-12T12:03:59.442Z,1.16
2022-12-12T12:18:58.998Z,1.33
2022-12-12T12:33:59.074Z,0.96
2022-12-12T12:48:59.229Z,1.33
2022-12-12T13:03:58.995Z,0.89
2022-12-12T13:18:59.308Z,0.51
2022-12-12T13:33:59.118Z,1.17
2022-12-12T13:48:59.330Z,1.12
2022-12-12T14:03:59.362Z,0.99
2022-12-12T14:18:59.282Z,0.99
2022-12-12T14:33:59.468Z,0.74
2022-12-12T14:48:59.292Z,0.47
2022-12-12T15:03:59.459Z,0.57
2022-12-12T15:18:59.481Z,0.27
2022-12-12T15:33:59.497Z,0.36
2022-12-12T15:48:59.259Z,0.31
2022-12-12T16:03:59.425Z,0.09
2022-12-12T16:18:59.423Z,0.05
2022-12-12T16:33:59.642Z,0.00
2022-12-12T16:48:59.682Z,0.12
2022-12-12T17:03:59.852Z,0.13
2022-12-12T17:18:59.607Z,0.00
2022-12-12T17:33:59.790Z,0.00
2022-12-12T17:48:59.951Z,0.45
2022-12-12T18:03:59.876Z,0.29
2022-12-12T18:18:59.650Z,0.27
2022-12-12T18:33:59.907Z,0.27
2022-12-12T18:48:59.898Z,0.00
2022-12-12T19:03:59.909Z,0.00
2022-12-12T19:19:00.109Z,0.00
2022-12-12T19:33:59.955Z,0.00
2022-12-12T19:49:00.149Z,0.00
2022-12-12T20:04:00.164Z,0.00
2022-12-12T20:19:00.092Z,0.00
2022-12-12T20:33:59.981Z,0.00
2022-12-12T20:49:00.287Z,0.00
2022-12-12T21:04:00.222Z,0.00
2022-12-12T21:19:00.154Z,0.00
2022-12-12T21:34:00.135Z,0.00
2022-12-12T21:49:00.156Z,0.00
2022-12-12T22:04:00.337Z,0.00
2022-12-12T22:19:05.297Z,0.00
2022-12-12T22:34:00.395Z,0.00
2022-12-12T22:49:00.320Z,0.00
2022-12-12T23:04:00.487Z,0.00
2022-12-12T23:19:00.495Z,0.00
2022-12-12T23:34:00.434Z,0.00
2022-12-12T23:49:00.161Z,0.00
